sensor_id;sensor_type;location;lat;lon;timestamp;pressure;altitude;pressure_sealevel;temperature;humidity
5380;BME280;2713;42.680;23.310;2023-11-22T00:00:44;94364.47;;;10.34;76.57
5380;BME280;2713;42.680;23.310;2023-11-22T00:03:11;94369.88;;;10.46;76.58
5380;BME280;2713;42.680;23.310;2023-11-22T00:05:39;94364.91;;;10.51;76.01
5380;BME280;2713;42.680;23.310;2023-11-22T00:08:06;94365.53;;;10.66;74.94
5380;BME280;2713;42.680;23.310;2023-11-22T00:10:33;94366.09;;;10.55;76.01
5380;BME280;2713;42.680;23.310;2023-11-22T00:13:00;94358.34;;;10.61;75.79
5380;BME280;2713;42.680;23.310;2023-11-22T00:15:27;94350.72;;;10.47;75.97
5380;BME280;2713;42.680;23.310;2023-11-22T00:17:54;94355.53;;;10.56;75.63
5380;BME280;2713;42.680;23.310;2023-11-22T00:20:23;94367.91;;;10.54;75.73
5380;BME280;2713;42.680;23.310;2023-11-22T00:22:51;94365.91;;;10.56;75.72
5380;BME280;2713;42.680;23.310;2023-11-22T00:25:18;94355.69;;;10.42;76.56
5380;BME280;2713;42.680;23.310;2023-11-22T00:27:44;94360.13;;;10.48;76.23
5380;BME280;2713;42.680;23.310;2023-11-22T00:30:13;94350.69;;;10.40;75.70
5380;BME280;2713;42.680;23.310;2023-11-22T00:32:40;94346.91;;;10.56;75.60
5380;BME280;2713;42.680;23.310;2023-11-22T00:35:07;94354.72;;;10.56;75.28
5380;BME280;2713;42.680;23.310;2023-11-22T00:37:35;94354.31;;;10.59;75.45
5380;BME280;2713;42.680;23.310;2023-11-22T00:40:04;94367.84;;;10.41;75.79
5380;BME280;2713;42.680;23.310;2023-11-22T00:42:36;94343.91;;;10.46;75.82
5380;BME280;2713;42.680;23.310;2023-11-22T00:45:06;94365.53;;;10.73;75.48
5380;BME280;2713;42.680;23.310;2023-11-22T00:47:33;94355.97;;;10.73;75.36
5380;BME280;2713;42.680;23.310;2023-11-22T00:50:00;94361.56;;;10.77;75.14
5380;BME280;2713;42.680;23.310;2023-11-22T00:52:29;94360.16;;;10.74;75.14
5380;BME280;2713;42.680;23.310;2023-11-22T00:54:55;94356.31;;;10.57;75.28
5380;BME280;2713;42.680;23.310;2023-11-22T00:57:24;94347.34;;;10.59;75.84
5380;BME280;2713;42.680;23.310;2023-11-22T00:59:52;94329.63;;;10.22;77.10
5380;BME280;2713;42.680;23.310;2023-11-22T01:02:19;94351.91;;;10.51;76.63
5380;BME280;2713;42.680;23.310;2023-11-22T01:04:46;94338.13;;;10.57;76.21
5380;BME280;2713;42.680;23.310;2023-11-22T01:07:12;94354.13;;;10.60;75.85
5380;BME280;2713;42.680;23.310;2023-11-22T01:09:39;94345.56;;;10.66;75.43
5380;BME280;2713;42.680;23.310;2023-11-22T01:12:06;94343.53;;;10.55;75.99
5380;BME280;2713;42.680;23.310;2023-11-22T01:14:36;94345.94;;;10.57;76.43
5380;BME280;2713;42.680;23.310;2023-11-22T01:17:03;94338.16;;;10.63;75.67
5380;BME280;2713;42.680;23.310;2023-11-22T01:19:30;94326.91;;;10.37;76.67
5380;BME280;2713;42.680;23.310;2023-11-22T01:21:57;94326.53;;;10.59;75.64
5380;BME280;2713;42.680;23.310;2023-11-22T01:24:24;94337.75;;;10.66;75.24
5380;BME280;2713;42.680;23.310;2023-11-22T01:26:51;94335.75;;;10.68;75.80
5380;BME280;2713;42.680;23.310;2023-11-22T01:29:17;94340.38;;;10.80;75.07
5380;BME280;2713;42.680;23.310;2023-11-22T01:31:45;94325.16;;;10.77;74.55
5380;BME280;2713;42.680;23.310;2023-11-22T01:34:13;94311.16;;;10.64;74.31
5380;BME280;2713;42.680;23.310;2023-11-22T01:36:42;94318.75;;;10.73;74.28
5380;BME280;2713;42.680;23.310;2023-11-22T01:39:10;94309.13;;;10.47;75.60
5380;BME280;2713;42.680;23.310;2023-11-22T01:41:38;94317.19;;;10.72;74.96
5380;BME280;2713;42.680;23.310;2023-11-22T01:44:04;94299.34;;;10.68;74.55
5380;BME280;2713;42.680;23.310;2023-11-22T01:46:31;94298.38;;;10.63;75.25
5380;BME280;2713;42.680;23.310;2023-11-22T01:49:01;94305.56;;;10.67;74.67
5380;BME280;2713;42.680;23.310;2023-11-22T01:51:28;94302.59;;;10.77;74.07
5380;BME280;2713;42.680;23.310;2023-11-22T01:53:56;94302.97;;;10.74;73.94
5380;BME280;2713;42.680;23.310;2023-11-22T01:56:26;94318.56;;;10.61;74.52
5380;BME280;2713;42.680;23.310;2023-11-22T01:58:55;94320.94;;;10.69;74.51
5380;BME280;2713;42.680;23.310;2023-11-22T02:01:22;94309.16;;;10.53;75.34
5380;BME280;2713;42.680;23.310;2023-11-22T02:03:50;94313.16;;;10.62;75.35
5380;BME280;2713;42.680;23.310;2023-11-22T02:06:20;94302.34;;;10.65;75.12
5380;BME280;2713;42.680;23.310;2023-11-22T02:08:48;94304.34;;;10.57;74.91
5380;BME280;2713;42.680;23.310;2023-11-22T02:11:17;94303.16;;;10.73;74.23
5380;BME280;2713;42.680;23.310;2023-11-22T02:13:47;94296.97;;;10.74;74.06
5380;BME280;2713;42.680;23.310;2023-11-22T02:16:14;94291.38;;;10.77;74.11
5380;BME280;2713;42.680;23.310;2023-11-22T02:18:43;94291.56;;;10.68;74.04
5380;BME280;2713;42.680;23.310;2023-11-22T02:21:10;94284.78;;;10.67;74.03
5380;BME280;2713;42.680;23.310;2023-11-22T02:23:38;94300.16;;;10.56;75.19
5380;BME280;2713;42.680;23.310;2023-11-22T02:26:05;94293.16;;;10.56;75.05
5380;BME280;2713;42.680;23.310;2023-11-22T02:28:32;94290.16;;;10.73;74.03
5380;BME280;2713;42.680;23.310;2023-11-22T02:30:59;94315.97;;;10.81;73.86
5380;BME280;2713;42.680;23.310;2023-11-22T02:33:26;94307.78;;;10.71;74.00
5380;BME280;2713;42.680;23.310;2023-11-22T02:35:52;94310.56;;;10.76;73.84
5380;BME280;2713;42.680;23.310;2023-11-22T02:38:20;94302.34;;;10.65;74.41
5380;BME280;2713;42.680;23.310;2023-11-22T02:40:48;94290.38;;;10.71;74.12
5380;BME280;2713;42.680;23.310;2023-11-22T02:43:16;94295.97;;;10.61;74.28
5380;BME280;2713;42.680;23.310;2023-11-22T02:45:43;94299.56;;;10.67;74.13
5380;BME280;2713;42.680;23.310;2023-11-22T02:48:09;94288.78;;;10.57;74.15
5380;BME280;2713;42.680;23.310;2023-11-22T02:50:36;94290.56;;;10.69;74.49
5380;BME280;2713;42.680;23.310;2023-11-22T02:53:04;94287.78;;;10.64;75.08
5380;BME280;2713;42.680;23.310;2023-11-22T02:55:33;94297.97;;;10.73;74.94
5380;BME280;2713;42.680;23.310;2023-11-22T02:58:01;94307.38;;;10.80;73.73
5380;BME280;2713;42.680;23.310;2023-11-22T03:00:28;94292.38;;;10.76;73.59
5380;BME280;2713;42.680;23.310;2023-11-22T03:02:55;94303.97;;;10.80;73.69
5380;BME280;2713;42.680;23.310;2023-11-22T03:05:22;94304.19;;;10.72;74.10
5380;BME280;2713;42.680;23.310;2023-11-22T03:07:49;94302.38;;;10.72;74.50
5380;BME280;2713;42.680;23.310;2023-11-22T03:10:17;94305.97;;;10.71;74.09
5380;BME280;2713;42.680;23.310;2023-11-22T03:12:45;94299.19;;;10.77;73.86
5380;BME280;2713;42.680;23.310;2023-11-22T03:15:14;94305.00;;;10.85;73.71
5380;BME280;2713;42.680;23.310;2023-11-22T03:17:41;94309.56;;;10.77;73.83
5380;BME280;2713;42.680;23.310;2023-11-22T03:20:10;94303.16;;;10.86;73.59
5380;BME280;2713;42.680;23.310;2023-11-22T03:22:37;94295.78;;;10.83;73.81
5380;BME280;2713;42.680;23.310;2023-11-22T03:25:05;94313.97;;;10.83;74.31
5380;BME280;2713;42.680;23.310;2023-11-22T03:27:32;94317.59;;;10.88;74.25
5380;BME280;2713;42.680;23.310;2023-11-22T03:29:59;94315.19;;;10.80;74.96
5380;BME280;2713;42.680;23.310;2023-11-22T03:32:27;94309.19;;;10.86;74.66
5380;BME280;2713;42.680;23.310;2023-11-22T03:34:54;94308.59;;;10.71;74.81
5380;BME280;2713;42.680;23.310;2023-11-22T03:37:22;94305.19;;;10.77;74.42
5380;BME280;2713;42.680;23.310;2023-11-22T03:39:49;94296.00;;;10.81;74.73
5380;BME280;2713;42.680;23.310;2023-11-22T03:42:16;94291.59;;;10.82;75.02
5380;BME280;2713;42.680;23.310;2023-11-22T03:44:44;94308.19;;;10.67;75.63
5380;BME280;2713;42.680;23.310;2023-11-22T03:47:11;94294.78;;;10.77;75.33
5380;BME280;2713;42.680;23.310;2023-11-22T03:49:40;94300.97;;;10.89;75.15
5380;BME280;2713;42.680;23.310;2023-11-22T03:52:09;94294.19;;;10.75;75.23
5380;BME280;2713;42.680;23.310;2023-11-22T03:54:36;94295.16;;;10.54;76.40
5380;BME280;2713;42.680;23.310;2023-11-22T03:57:04;94297.97;;;10.59;76.21
5380;BME280;2713;42.680;23.310;2023-11-22T03:59:31;94295.97;;;10.61;75.95
5380;BME280;2713;42.680;23.310;2023-11-22T04:01:57;94305.75;;;10.59;75.71
5380;BME280;2713;42.680;23.310;2023-11-22T04:04:24;94308.34;;;10.59;75.62
5380;BME280;2713;42.680;23.310;2023-11-22T04:06:52;94306.38;;;10.68;75.17
5380;BME280;2713;42.680;23.310;2023-11-22T04:09:19;94316.78;;;10.88;74.99
5380;BME280;2713;42.680;23.310;2023-11-22T04:11:46;94313.16;;;10.82;74.70
5380;BME280;2713;42.680;23.310;2023-11-22T04:14:13;94304.94;;;10.52;75.79
5380;BME280;2713;42.680;23.310;2023-11-22T04:16:40;94326.94;;;10.56;75.77
5380;BME280;2713;42.680;23.310;2023-11-22T04:19:07;94327.72;;;10.50;76.56
5380;BME280;2713;42.680;23.310;2023-11-22T04:21:33;94336.75;;;10.67;75.99
5380;BME280;2713;42.680;23.310;2023-11-22T04:24:02;94344.34;;;10.76;75.36
5380;BME280;2713;42.680;23.310;2023-11-22T04:26:28;94341.16;;;10.67;75.35
5380;BME280;2713;42.680;23.310;2023-11-22T04:28:55;94347.16;;;10.74;75.08
5380;BME280;2713;42.680;23.310;2023-11-22T04:31:24;94347.97;;;10.75;75.25
5380;BME280;2713;42.680;23.310;2023-11-22T04:33:51;94351.38;;;10.75;74.76
5380;BME280;2713;42.680;23.310;2023-11-22T04:36:18;94351.16;;;10.63;75.22
5380;BME280;2713;42.680;23.310;2023-11-22T04:38:45;94351.31;;;10.55;75.62
5380;BME280;2713;42.680;23.310;2023-11-22T04:41:13;94348.75;;;10.68;75.66
5380;BME280;2713;42.680;23.310;2023-11-22T04:43:39;94353.16;;;10.68;75.61
5380;BME280;2713;42.680;23.310;2023-11-22T04:46:07;94348.97;;;10.80;74.83
5380;BME280;2713;42.680;23.310;2023-11-22T04:48:34;94363.16;;;10.64;75.49
5380;BME280;2713;42.680;23.310;2023-11-22T04:51:02;94353.75;;;10.77;75.25
5380;BME280;2713;42.680;23.310;2023-11-22T04:53:29;94375.19;;;10.92;75.00
5380;BME280;2713;42.680;23.310;2023-11-22T04:55:56;94384.56;;;10.80;74.96
5380;BME280;2713;42.680;23.310;2023-11-22T04:58:24;94390.31;;;10.68;75.03
5380;BME280;2713;42.680;23.310;2023-11-22T05:00:51;94384.97;;;10.77;74.84
5380;BME280;2713;42.680;23.310;2023-11-22T05:03:18;94394.75;;;10.75;75.81
5380;BME280;2713;42.680;23.310;2023-11-22T05:05:44;94404.34;;;10.67;75.94
5380;BME280;2713;42.680;23.310;2023-11-22T05:08:11;94403.56;;;10.80;75.39
5380;BME280;2713;42.680;23.310;2023-11-22T05:10:39;94401.97;;;10.86;75.59
5380;BME280;2713;42.680;23.310;2023-11-22T05:13:06;94416.59;;;10.93;75.81
5380;BME280;2713;42.680;23.310;2023-11-22T05:15:34;94410.56;;;10.93;75.89
5380;BME280;2713;42.680;23.310;2023-11-22T05:18:00;94417.19;;;10.89;75.83
5380;BME280;2713;42.680;23.310;2023-11-22T05:20:27;94408.91;;;10.59;76.54
5380;BME280;2713;42.680;23.310;2023-11-22T05:22:54;94412.72;;;10.63;77.16
5380;BME280;2713;42.680;23.310;2023-11-22T05:25:21;94419.09;;;10.60;77.52
5380;BME280;2713;42.680;23.310;2023-11-22T05:27:47;94420.53;;;10.69;78.10
5380;BME280;2713;42.680;23.310;2023-11-22T05:30:16;94420.13;;;10.73;78.28
5380;BME280;2713;42.680;23.310;2023-11-22T05:32:44;94428.16;;;10.78;78.52
5380;BME280;2713;42.680;23.310;2023-11-22T05:35:11;94432.78;;;10.89;78.83
5380;BME280;2713;42.680;23.310;2023-11-22T05:37:38;94448.69;;;10.59;79.06
5380;BME280;2713;42.680;23.310;2023-11-22T05:40:06;94454.53;;;10.68;78.66
5380;BME280;2713;42.680;23.310;2023-11-22T05:42:35;94446.72;;;10.68;79.82
5380;BME280;2713;42.680;23.310;2023-11-22T05:45:03;94434.78;;;10.87;79.51
5380;BME280;2713;42.680;23.310;2023-11-22T05:47:31;94437.75;;;10.77;79.66
5380;BME280;2713;42.680;23.310;2023-11-22T05:49:59;94447.78;;;10.87;79.70
5380;BME280;2713;42.680;23.310;2023-11-22T05:52:26;94440.75;;;10.74;80.02
5380;BME280;2713;42.680;23.310;2023-11-22T05:54:52;94455.00;;;10.98;80.10
5380;BME280;2713;42.680;23.310;2023-11-22T05:57:19;94455.59;;;11.00;79.38
5380;BME280;2713;42.680;23.310;2023-11-22T05:59:46;94466.03;;;11.06;79.06
5380;BME280;2713;42.680;23.310;2023-11-22T06:02:13;94468.44;;;11.08;79.48
5380;BME280;2713;42.680;23.310;2023-11-22T06:04:40;94474.22;;;11.03;79.62
5380;BME280;2713;42.680;23.310;2023-11-22T06:07:09;94474.59;;;10.94;79.08
5380;BME280;2713;42.680;23.310;2023-11-22T06:09:35;94473.63;;;11.01;79.41
5380;BME280;2713;42.680;23.310;2023-11-22T06:12:03;94484.03;;;11.08;79.77
5380;BME280;2713;42.680;23.310;2023-11-22T06:14:30;94483.44;;;11.06;80.39
5380;BME280;2713;42.680;23.310;2023-11-22T06:16:57;94480.88;;;11.12;80.26
5380;BME280;2713;42.680;23.310;2023-11-22T06:19:24;94483.25;;;11.20;80.16
5380;BME280;2713;42.680;23.310;2023-11-22T06:21:51;94493.47;;;11.15;80.60
5380;BME280;2713;42.680;23.310;2023-11-22T06:24:19;94498.06;;;11.20;79.92
5380;BME280;2713;42.680;23.310;2023-11-22T06:26:46;94505.69;;;11.28;79.73
5380;BME280;2713;42.680;23.310;2023-11-22T06:29:13;94518.09;;;11.19;79.04
5380;BME280;2713;42.680;23.310;2023-11-22T06:31:40;94515.09;;;11.23;78.03
5380;BME280;2713;42.680;23.310;2023-11-22T06:34:07;94509.66;;;11.17;78.53
5380;BME280;2713;42.680;23.310;2023-11-22T06:36:33;94498.44;;;11.10;80.23
5380;BME280;2713;42.680;23.310;2023-11-22T06:39:00;94495.00;;;10.97;81.25
5380;BME280;2713;42.680;23.310;2023-11-22T06:41:28;94514.47;;;11.14;81.37
5380;BME280;2713;42.680;23.310;2023-11-22T06:43:55;94526.50;;;11.28;80.20
5380;BME280;2713;42.680;23.310;2023-11-22T06:46:23;94520.91;;;11.25;79.98
5380;BME280;2713;42.680;23.310;2023-11-22T06:48:50;94530.50;;;11.24;79.72
5380;BME280;2713;42.680;23.310;2023-11-22T06:51:17;94530.47;;;11.11;79.94
5380;BME280;2713;42.680;23.310;2023-11-22T06:53:44;94529.25;;;11.13;80.47
5380;BME280;2713;42.680;23.310;2023-11-22T06:56:11;94524.88;;;11.20;80.79
5380;BME280;2713;42.680;23.310;2023-11-22T06:58:40;94532.94;;;11.39;80.20
5380;BME280;2713;42.680;23.310;2023-11-22T07:01:07;94533.75;;;11.33;79.68
5380;BME280;2713;42.680;23.310;2023-11-22T07:03:36;94525.53;;;11.36;79.71
5380;BME280;2713;42.680;23.310;2023-11-22T07:06:07;94523.13;;;11.34;80.92
5380;BME280;2713;42.680;23.310;2023-11-22T07:08:35;94534.75;;;11.38;81.18
5380;BME280;2713;42.680;23.310;2023-11-22T07:11:02;94541.00;;;11.50;80.28
5380;BME280;2713;42.680;23.310;2023-11-22T07:13:29;94547.16;;;11.43;80.80
5380;BME280;2713;42.680;23.310;2023-11-22T07:15:58;94540.59;;;11.47;81.17
5380;BME280;2713;42.680;23.310;2023-11-22T07:18:25;94549.78;;;11.43;81.17
5380;BME280;2713;42.680;23.310;2023-11-22T07:20:53;94551.41;;;11.50;81.33
5380;BME280;2713;42.680;23.310;2023-11-22T07:23:20;94551.00;;;11.53;81.48
5380;BME280;2713;42.680;23.310;2023-11-22T07:25:52;94554.38;;;11.47;82.01
5380;BME280;2713;42.680;23.310;2023-11-22T07:28:20;94550.59;;;11.56;81.33
5380;BME280;2713;42.680;23.310;2023-11-22T07:30:47;94554.63;;;11.65;80.25
5380;BME280;2713;42.680;23.310;2023-11-22T07:33:16;94556.00;;;11.61;77.91
5380;BME280;2713;42.680;23.310;2023-11-22T07:35:44;94569.38;;;11.45;78.36
5380;BME280;2713;42.680;23.310;2023-11-22T07:38:12;94570.78;;;11.48;77.27
5380;BME280;2713;42.680;23.310;2023-11-22T07:40:39;94564.94;;;11.26;77.57
5380;BME280;2713;42.680;23.310;2023-11-22T07:43:07;94573.16;;;11.30;78.01
5380;BME280;2713;42.680;23.310;2023-11-22T07:45:34;94568.16;;;11.41;78.11
5380;BME280;2713;42.680;23.310;2023-11-22T07:48:03;94570.59;;;11.49;78.10
5380;BME280;2713;42.680;23.310;2023-11-22T07:50:31;94564.44;;;11.57;78.37
5380;BME280;2713;42.680;23.310;2023-11-22T07:52:58;94574.22;;;11.61;76.82
5380;BME280;2713;42.680;23.310;2023-11-22T07:55:25;94574.03;;;11.56;76.31
5380;BME280;2713;42.680;23.310;2023-11-22T07:57:52;94571.00;;;11.46;76.67
5380;BME280;2713;42.680;23.310;2023-11-22T08:00:22;94573.97;;;11.37;76.86
5380;BME280;2713;42.680;23.310;2023-11-22T08:02:52;94576.16;;;11.27;79.01
5380;BME280;2713;42.680;23.310;2023-11-22T08:05:19;94573.34;;;11.35;79.27
5380;BME280;2713;42.680;23.310;2023-11-22T08:07:50;94578.81;;;11.53;79.50
5380;BME280;2713;42.680;23.310;2023-11-22T08:10:17;94577.84;;;11.60;79.01
5380;BME280;2713;42.680;23.310;2023-11-22T08:12:46;94581.28;;;11.67;78.77
5380;BME280;2713;42.680;23.310;2023-11-22T08:15:15;94571.44;;;11.63;79.09
5380;BME280;2713;42.680;23.310;2023-11-22T08:17:43;94585.66;;;11.54;78.65
5380;BME280;2713;42.680;23.310;2023-11-22T08:20:10;94585.03;;;11.65;77.54
5380;BME280;2713;42.680;23.310;2023-11-22T08:22:39;94573.81;;;11.64;76.32
5380;BME280;2713;42.680;23.310;2023-11-22T08:25:08;94565.44;;;11.62;76.75
5380;BME280;2713;42.680;23.310;2023-11-22T08:27:38;94587.06;;;11.69;78.25
5380;BME280;2713;42.680;23.310;2023-11-22T08:30:07;94580.69;;;11.72;78.36
5380;BME280;2713;42.680;23.310;2023-11-22T08:32:39;94591.13;;;11.79;76.90
5380;BME280;2713;42.680;23.310;2023-11-22T08:35:07;94593.91;;;11.71;77.13
5380;BME280;2713;42.680;23.310;2023-11-22T08:37:34;94599.72;;;11.73;77.48
5380;BME280;2713;42.680;23.310;2023-11-22T08:40:05;94607.47;;;11.66;77.43
5380;BME280;2713;42.680;23.310;2023-11-22T08:42:34;94602.94;;;11.75;77.22
5380;BME280;2713;42.680;23.310;2023-11-22T08:45:01;94603.31;;;11.72;77.54
5380;BME280;2713;42.680;23.310;2023-11-22T08:47:28;94589.72;;;11.76;77.80
5380;BME280;2713;42.680;23.310;2023-11-22T08:49:56;94584.63;;;11.61;78.68
5380;BME280;2713;42.680;23.310;2023-11-22T08:52:29;94596.47;;;11.64;79.26
5380;BME280;2713;42.680;23.310;2023-11-22T08:54:56;94594.66;;;11.64;79.26
5380;BME280;2713;42.680;23.310;2023-11-22T08:57:23;94595.31;;;11.73;79.84
5380;BME280;2713;42.680;23.310;2023-11-22T08:59:52;94595.16;;;11.88;79.34
5380;BME280;2713;42.680;23.310;2023-11-22T09:02:20;94603.38;;;11.98;78.83
5380;BME280;2713;42.680;23.310;2023-11-22T09:04:47;94608.78;;;12.03;78.85
5380;BME280;2713;42.680;23.310;2023-11-22T09:07:14;94616.00;;;11.94;78.74
5380;BME280;2713;42.680;23.310;2023-11-22T09:09:41;94619.56;;;11.87;79.40
5380;BME280;2713;42.680;23.310;2023-11-22T09:12:08;94626.81;;;11.85;79.36
5380;BME280;2713;42.680;23.310;2023-11-22T09:14:39;94623.00;;;11.94;79.26
5380;BME280;2713;42.680;23.310;2023-11-22T09:17:08;94626.41;;;12.01;79.08
5380;BME280;2713;42.680;23.310;2023-11-22T09:19:35;94629.44;;;12.04;78.72
5380;BME280;2713;42.680;23.310;2023-11-22T09:22:03;94640.41;;;11.93;78.93
5380;BME280;2713;42.680;23.310;2023-11-22T09:24:32;94644.22;;;11.78;80.01
5380;BME280;2713;42.680;23.310;2023-11-22T09:26:59;94639.19;;;11.83;80.03
5380;BME280;2713;42.680;23.310;2023-11-22T09:29:30;94640.81;;;11.84;79.86
5380;BME280;2713;42.680;23.310;2023-11-22T09:31:58;94634.63;;;11.91;79.58
5380;BME280;2713;42.680;23.310;2023-11-22T09:34:27;94629.22;;;11.99;78.57
5380;BME280;2713;42.680;23.310;2023-11-22T09:36:55;94623.19;;;11.99;78.51
5380;BME280;2713;42.680;23.310;2023-11-22T10:31:30;94632.63;;;12.26;79.19
5380;BME280;2713;42.680;23.310;2023-11-22T10:34:00;94623.63;;;12.42;78.80
5380;BME280;2713;42.680;23.310;2023-11-22T10:36:27;94627.84;;;12.49;78.31
5380;BME280;2713;42.680;23.310;2023-11-22T10:38:54;94636.88;;;12.66;77.55
5380;BME280;2713;42.680;23.310;2023-11-22T10:41:21;94637.44;;;12.68;77.43
5380;BME280;2713;42.680;23.310;2023-11-22T10:43:49;94636.88;;;12.66;76.97
5380;BME280;2713;42.680;23.310;2023-11-22T10:46:18;94641.28;;;12.66;75.92
5380;BME280;2713;42.680;23.310;2023-11-22T10:48:48;94649.91;;;12.73;75.65
5380;BME280;2713;42.680;23.310;2023-11-22T10:51:15;94644.88;;;12.71;75.38
5380;BME280;2713;42.680;23.310;2023-11-22T10:53:48;94642.88;;;12.67;76.51
5380;BME280;2713;42.680;23.310;2023-11-22T10:56:16;94633.63;;;12.78;75.93
5380;BME280;2713;42.680;23.310;2023-11-22T10:58:47;94613.41;;;12.66;76.24
5380;BME280;2713;42.680;23.310;2023-11-22T11:01:15;94638.47;;;12.61;76.90
5380;BME280;2713;42.680;23.310;2023-11-22T11:03:46;94633.84;;;12.63;76.82
5380;BME280;2713;42.680;23.310;2023-11-22T11:06:25;94631.84;;;12.58;76.94
5380;BME280;2713;42.680;23.310;2023-11-22T11:08:55;94634.84;;;12.68;76.88
5380;BME280;2713;42.680;23.310;2023-11-22T11:11:25;94638.06;;;12.77;76.61
5380;BME280;2713;42.680;23.310;2023-11-22T11:13:54;94630.81;;;12.86;76.65
5380;BME280;2713;42.680;23.310;2023-11-22T11:16:21;94644.06;;;12.78;76.70
5380;BME280;2713;42.680;23.310;2023-11-22T11:18:49;94641.88;;;12.61;76.75
5380;BME280;2713;42.680;23.310;2023-11-22T11:21:16;94629.38;;;12.96;80.56
5380;BME280;2713;42.680;23.310;2023-11-22T11:23:45;94636.84;;;12.80;77.71
5380;BME280;2713;42.680;23.310;2023-11-22T11:26:17;94638.47;;;12.81;76.86
5380;BME280;2713;42.680;23.310;2023-11-22T11:28:48;94640.44;;;12.79;76.96
5380;BME280;2713;42.680;23.310;2023-11-22T11:31:15;94632.84;;;12.64;78.02
5380;BME280;2713;42.680;23.310;2023-11-22T11:33:55;94630.81;;;12.79;77.04
5380;BME280;2713;42.680;23.310;2023-11-22T11:36:25;94627.22;;;12.80;76.84
5380;BME280;2713;42.680;23.310;2023-11-22T11:38:56;94625.97;;;12.89;76.76
5380;BME280;2713;42.680;23.310;2023-11-22T11:41:26;94627.16;;;13.06;76.81
5380;BME280;2713;42.680;23.310;2023-11-22T11:43:53;94613.13;;;13.01;76.33
5380;BME280;2713;42.680;23.310;2023-11-22T11:46:21;94642.63;;;13.14;76.03
5380;BME280;2713;42.680;23.310;2023-11-22T11:48:51;94637.59;;;13.00;76.08
5380;BME280;2713;42.680;23.310;2023-11-22T11:51:19;94634.81;;;13.14;75.35
5380;BME280;2713;42.680;23.310;2023-11-22T11:53:46;94632.19;;;13.08;76.66
5380;BME280;2713;42.680;23.310;2023-11-22T11:56:15;94644.22;;;13.02;78.03
5380;BME280;2713;42.680;23.310;2023-11-22T11:58:44;94633.78;;;13.09;77.78
5380;BME280;2713;42.680;23.310;2023-11-22T12:01:11;94634.00;;;13.14;77.69
5380;BME280;2713;42.680;23.310;2023-11-22T12:03:39;94628.16;;;13.12;77.88
5380;BME280;2713;42.680;23.310;2023-11-22T12:06:06;94640.22;;;13.13;77.89
5380;BME280;2713;42.680;23.310;2023-11-22T12:08:33;94645.84;;;13.10;77.99
5380;BME280;2713;42.680;23.310;2023-11-22T12:11:02;94644.22;;;13.09;77.66
5380;BME280;2713;42.680;23.310;2023-11-22T12:13:31;94655.06;;;13.12;77.63
5380;BME280;2713;42.680;23.310;2023-11-22T12:15:58;94664.91;;;13.04;78.48
5380;BME280;2713;42.680;23.310;2023-11-22T12:18:28;94664.91;;;13.04;78.53
5380;BME280;2713;42.680;23.310;2023-11-22T12:20:57;94660.28;;;12.93;78.60
5380;BME280;2713;42.680;23.310;2023-11-22T12:23:25;94665.31;;;13.01;78.79
5380;BME280;2713;42.680;23.310;2023-11-22T12:25:56;94660.69;;;12.90;78.72
5380;BME280;2713;42.680;23.310;2023-11-22T12:28:24;94663.09;;;12.85;79.65
5380;BME280;2713;42.680;23.310;2023-11-22T12:30:54;94666.09;;;12.88;79.68
5380;BME280;2713;42.680;23.310;2023-11-22T12:33:21;94658.91;;;12.90;79.92
5380;BME280;2713;42.680;23.310;2023-11-22T12:35:48;94667.94;;;12.94;79.43
5380;BME280;2713;42.680;23.310;2023-11-22T12:38:16;94666.88;;;13.02;78.00
5380;BME280;2713;42.680;23.310;2023-11-22T12:40:46;94658.88;;;13.10;78.30
5380;BME280;2713;42.680;23.310;2023-11-22T12:43:13;94667.91;;;13.14;78.45
5380;BME280;2713;42.680;23.310;2023-11-22T12:45:41;94678.13;;;13.15;78.53
5380;BME280;2713;42.680;23.310;2023-11-22T12:48:22;94679.75;;;12.97;78.99
5380;BME280;2713;42.680;23.310;2023-11-22T12:50:50;94690.19;;;13.03;78.33
5380;BME280;2713;42.680;23.310;2023-11-22T12:53:18;94698.22;;;12.89;78.47
5380;BME280;2713;42.680;23.310;2023-11-22T12:55:47;94702.03;;;12.93;79.19
5380;BME280;2713;42.680;23.310;2023-11-22T12:58:15;94693.59;;;13.04;78.36
5380;BME280;2713;42.680;23.310;2023-11-22T13:00:43;94701.03;;;13.07;78.64
5380;BME280;2713;42.680;23.310;2023-11-22T13:03:10;94701.63;;;13.09;79.14
5380;BME280;2713;42.680;23.310;2023-11-22T13:05:39;94709.84;;;13.19;78.44
5380;BME280;2713;42.680;23.310;2023-11-22T13:08:08;94711.06;;;13.23;77.41
5380;BME280;2713;42.680;23.310;2023-11-22T13:10:38;94718.31;;;13.14;77.67
5380;BME280;2713;42.680;23.310;2023-11-22T13:13:05;94716.47;;;13.02;78.77
5380;BME280;2713;42.680;23.310;2023-11-22T13:15:34;94715.06;;;13.06;78.17
5380;BME280;2713;42.680;23.310;2023-11-22T13:18:01;94704.22;;;12.96;78.90
5380;BME280;2713;42.680;23.310;2023-11-22T13:20:31;94717.09;;;12.97;78.68
5380;BME280;2713;42.680;23.310;2023-11-22T13:23:00;94710.66;;;12.87;79.21
5380;BME280;2713;42.680;23.310;2023-11-22T13:25:28;94716.69;;;12.94;79.19
5380;BME280;2713;42.680;23.310;2023-11-22T13:27:55;94716.88;;;13.05;78.76
5380;BME280;2713;42.680;23.310;2023-11-22T13:30:22;94721.91;;;13.07;78.68
5380;BME280;2713;42.680;23.310;2023-11-22T13:32:50;94717.47;;;13.07;78.13
5380;BME280;2713;42.680;23.310;2023-11-22T13:35:17;94727.53;;;13.17;77.97
5380;BME280;2713;42.680;23.310;2023-11-22T13:37:45;94727.53;;;13.17;77.65
5380;BME280;2713;42.680;23.310;2023-11-22T13:40:15;94736.34;;;13.23;77.85
5380;BME280;2713;42.680;23.310;2023-11-22T13:42:43;94734.78;;;13.15;77.62
5380;BME280;2713;42.680;23.310;2023-11-22T13:45:11;94734.31;;;13.05;78.14
5380;BME280;2713;42.680;23.310;2023-11-22T13:47:42;94745.97;;;12.96;79.37
5380;BME280;2713;42.680;23.310;2023-11-22T13:50:10;94743.19;;;13.04;79.09
5380;BME280;2713;42.680;23.310;2023-11-22T13:52:38;94759.84;;;13.16;78.43
5380;BME280;2713;42.680;23.310;2023-11-22T13:55:06;94764.03;;;13.04;78.71
5380;BME280;2713;42.680;23.310;2023-11-22T13:57:38;94746.78;;;12.90;79.13
5380;BME280;2713;42.680;23.310;2023-11-22T14:00:06;94754.81;;;12.88;79.59
5380;BME280;2713;42.680;23.310;2023-11-22T14:02:38;94767.03;;;12.88;79.86
5380;BME280;2713;42.680;23.310;2023-11-22T14:05:06;94776.06;;;12.79;80.29